Terminal Aerodrome Forecast
Issued by NWS Pittsburgh, PA

Current Version | Previous Version | Graphics & Text | Print | Product List | Glossary On
Versions: 1 2 3 4 5 6 7 8 9 10 11 12 13 14 15 16 17 18 19 20 21 22 23 24 25 26 27 28 29 30 31 32 33 34 35 36
358
FTUS41 KPBZ 171739
TAFPIT
TAF
KPIT 171739Z 1718/1824 23010G16KT P6SM BKN015 WS020/23035KT
     FM172030 24012G20KT P6SM -SHRA BKN020 WS020/24035KT
     FM172130 25012G20KT P6SM BKN025
     FM180200 25008KT P6SM OVC015
     FM181000 27010KT 4SM -SHRA BR BKN008
     FM181700 27011KT P6SM OVC015=

USA.gov is the U.S. government's official web portal to all federal, state and local government web resources and services.